sensor_id;sensor_type;location;lat;lon;timestamp;P1;durP1;ratioP1;P2;durP2;ratioP2
42018;SDS011;27703;51.980;5.848;2023-07-08T00:00:53;0.70;;;0.20;;
42018;SDS011;27703;51.980;5.848;2023-07-08T00:03:19;0.93;;;0.30;;
42018;SDS011;27703;51.980;5.848;2023-07-08T00:05:45;0.75;;;0.30;;
42018;SDS011;27703;51.980;5.848;2023-07-08T00:08:16;0.82;;;0.22;;
42018;SDS011;27703;51.980;5.848;2023-07-08T00:10:42;0.60;;;0.30;;
42018;SDS011;27703;51.980;5.848;2023-07-08T00:13:08;1.05;;;0.30;;
42018;SDS011;27703;51.980;5.848;2023-07-08T00:15:34;0.77;;;0.40;;
42018;SDS011;27703;51.980;5.848;2023-07-08T00:18:02;0.85;;;0.30;;
42018;SDS011;27703;51.980;5.848;2023-07-08T00:20:42;1.35;;;0.30;;
42018;SDS011;27703;51.980;5.848;2023-07-08T00:23:10;1.95;;;0.30;;
42018;SDS011;27703;51.980;5.848;2023-07-08T00:25:36;0.85;;;0.20;;
42018;SDS011;27703;51.980;5.848;2023-07-08T00:28:02;0.90;;;0.20;;
42018;SDS011;27703;51.980;5.848;2023-07-08T00:30:30;0.70;;;0.30;;
42018;SDS011;27703;51.980;5.848;2023-07-08T00:32:57;0.77;;;0.35;;
42018;SDS011;27703;51.980;5.848;2023-07-08T00:35:30;2.45;;;0.28;;
42018;SDS011;27703;51.980;5.848;2023-07-08T00:38:14;0.77;;;0.30;;
42018;SDS011;27703;51.980;5.848;2023-07-08T00:40:49;0.65;;;0.30;;
42018;SDS011;27703;51.980;5.848;2023-07-08T00:45:57;0.68;;;0.28;;
42018;SDS011;27703;51.980;5.848;2023-07-08T00:48:36;0.52;;;0.20;;
42018;SDS011;27703;51.980;5.848;2023-07-08T00:51:06;0.60;;;0.20;;
42018;SDS011;27703;51.980;5.848;2023-07-08T00:53:37;0.45;;;0.20;;
42018;SDS011;27703;51.980;5.848;2023-07-08T00:56:08;0.73;;;0.30;;
42018;SDS011;27703;51.980;5.848;2023-07-08T00:58:42;1.45;;;0.30;;
42018;SDS011;27703;51.980;5.848;2023-07-08T01:01:10;0.68;;;0.30;;
42018;SDS011;27703;51.980;5.848;2023-07-08T01:03:41;1.98;;;0.30;;
42018;SDS011;27703;51.980;5.848;2023-07-08T01:06:11;4.10;;;0.30;;
42018;SDS011;27703;51.980;5.848;2023-07-08T01:08:37;0.40;;;0.20;;
42018;SDS011;27703;51.980;5.848;2023-07-08T01:11:03;1.38;;;0.30;;
42018;SDS011;27703;51.980;5.848;2023-07-08T01:13:31;0.70;;;0.20;;
42018;SDS011;27703;51.980;5.848;2023-07-08T01:16:05;1.08;;;0.25;;
42018;SDS011;27703;51.980;5.848;2023-07-08T01:18:31;2.40;;;0.30;;
42018;SDS011;27703;51.980;5.848;2023-07-08T01:21:03;0.88;;;0.20;;
42018;SDS011;27703;51.980;5.848;2023-07-08T01:23:31;0.45;;;0.20;;
42018;SDS011;27703;51.980;5.848;2023-07-08T01:25:57;1.13;;;0.22;;
42018;SDS011;27703;51.980;5.848;2023-07-08T01:28:25;0.70;;;0.30;;
42018;SDS011;27703;51.980;5.848;2023-07-08T01:30:52;0.60;;;0.20;;
42018;SDS011;27703;51.980;5.848;2023-07-08T01:33:18;0.60;;;0.20;;
42018;SDS011;27703;51.980;5.848;2023-07-08T01:35:47;1.38;;;0.30;;
42018;SDS011;27703;51.980;5.848;2023-07-08T01:38:14;0.75;;;0.28;;
42018;SDS011;27703;51.980;5.848;2023-07-08T01:41:03;0.80;;;0.20;;
42018;SDS011;27703;51.980;5.848;2023-07-08T01:43:28;1.73;;;0.30;;
42018;SDS011;27703;51.980;5.848;2023-07-08T01:45:54;0.95;;;0.30;;
42018;SDS011;27703;51.980;5.848;2023-07-08T01:48:23;1.15;;;0.30;;
42018;SDS011;27703;51.980;5.848;2023-07-08T01:50:51;0.55;;;0.20;;
42018;SDS011;27703;51.980;5.848;2023-07-08T01:53:31;1.75;;;0.22;;
42018;SDS011;27703;51.980;5.848;2023-07-08T01:56:01;0.98;;;0.30;;
42018;SDS011;27703;51.980;5.848;2023-07-08T01:58:28;0.60;;;0.28;;
42018;SDS011;27703;51.980;5.848;2023-07-08T02:00:54;0.70;;;0.30;;
42018;SDS011;27703;51.980;5.848;2023-07-08T02:03:20;1.38;;;0.30;;
42018;SDS011;27703;51.980;5.848;2023-07-08T02:05:46;1.35;;;0.30;;
42018;SDS011;27703;51.980;5.848;2023-07-08T02:08:12;0.57;;;0.20;;
42018;SDS011;27703;51.980;5.848;2023-07-08T02:10:38;1.42;;;0.28;;
42018;SDS011;27703;51.980;5.848;2023-07-08T02:13:08;1.88;;;0.30;;
42018;SDS011;27703;51.980;5.848;2023-07-08T02:15:33;0.82;;;0.20;;
42018;SDS011;27703;51.980;5.848;2023-07-08T02:17:59;0.50;;;0.20;;
42018;SDS011;27703;51.980;5.848;2023-07-08T02:20:25;0.60;;;0.20;;
42018;SDS011;27703;51.980;5.848;2023-07-08T02:22:50;0.75;;;0.20;;
42018;SDS011;27703;51.980;5.848;2023-07-08T02:25:16;0.77;;;0.30;;
42018;SDS011;27703;51.980;5.848;2023-07-08T02:27:41;0.65;;;0.30;;
42018;SDS011;27703;51.980;5.848;2023-07-08T02:30:08;0.60;;;0.20;;
42018;SDS011;27703;51.980;5.848;2023-07-08T02:32:34;1.00;;;0.30;;
42018;SDS011;27703;51.980;5.848;2023-07-08T02:35:04;0.68;;;0.30;;
42018;SDS011;27703;51.980;5.848;2023-07-08T02:37:31;0.70;;;0.20;;
42018;SDS011;27703;51.980;5.848;2023-07-08T02:39:57;1.45;;;0.30;;
42018;SDS011;27703;51.980;5.848;2023-07-08T02:42:23;0.50;;;0.20;;
42018;SDS011;27703;51.980;5.848;2023-07-08T02:44:48;1.98;;;0.30;;
42018;SDS011;27703;51.980;5.848;2023-07-08T02:47:14;1.35;;;0.38;;
42018;SDS011;27703;51.980;5.848;2023-07-08T02:49:39;0.70;;;0.30;;
42018;SDS011;27703;51.980;5.848;2023-07-08T02:52:05;0.60;;;0.20;;
42018;SDS011;27703;51.980;5.848;2023-07-08T02:54:31;1.13;;;0.30;;
42018;SDS011;27703;51.980;5.848;2023-07-08T02:56:56;0.60;;;0.20;;
42018;SDS011;27703;51.980;5.848;2023-07-08T02:59:22;0.45;;;0.22;;
42018;SDS011;27703;51.980;5.848;2023-07-08T03:01:48;0.75;;;0.30;;
42018;SDS011;27703;51.980;5.848;2023-07-08T03:04:15;1.10;;;0.20;;
42018;SDS011;27703;51.980;5.848;2023-07-08T03:06:41;1.05;;;0.38;;
42018;SDS011;27703;51.980;5.848;2023-07-08T03:09:08;0.60;;;0.30;;
42018;SDS011;27703;51.980;5.848;2023-07-08T03:11:35;3.20;;;0.30;;
42018;SDS011;27703;51.980;5.848;2023-07-08T03:14:01;0.47;;;0.20;;
42018;SDS011;27703;51.980;5.848;2023-07-08T03:16:27;0.80;;;0.20;;
42018;SDS011;27703;51.980;5.848;2023-07-08T03:18:52;0.98;;;0.30;;
42018;SDS011;27703;51.980;5.848;2023-07-08T03:21:18;0.70;;;0.25;;
42018;SDS011;27703;51.980;5.848;2023-07-08T03:23:44;5.18;;;0.40;;
42018;SDS011;27703;51.980;5.848;2023-07-08T03:26:32;0.82;;;0.30;;
42018;SDS011;27703;51.980;5.848;2023-07-08T03:28:59;1.08;;;0.30;;
42018;SDS011;27703;51.980;5.848;2023-07-08T03:31:24;1.70;;;0.30;;
42018;SDS011;27703;51.980;5.848;2023-07-08T03:33:50;0.82;;;0.32;;
42018;SDS011;27703;51.980;5.848;2023-07-08T03:36:16;0.60;;;0.20;;
42018;SDS011;27703;51.980;5.848;2023-07-08T03:38:49;2.05;;;0.28;;
42018;SDS011;27703;51.980;5.848;2023-07-08T03:41:16;0.70;;;0.30;;
42018;SDS011;27703;51.980;5.848;2023-07-08T03:43:42;0.95;;;0.30;;
42018;SDS011;27703;51.980;5.848;2023-07-08T03:46:10;0.50;;;0.20;;
42018;SDS011;27703;51.980;5.848;2023-07-08T03:48:36;1.67;;;0.40;;
42018;SDS011;27703;51.980;5.848;2023-07-08T03:51:02;0.50;;;0.20;;
42018;SDS011;27703;51.980;5.848;2023-07-08T03:53:28;2.10;;;0.30;;
42018;SDS011;27703;51.980;5.848;2023-07-08T03:55:54;2.22;;;0.20;;
42018;SDS011;27703;51.980;5.848;2023-07-08T03:58:19;0.60;;;0.30;;
42018;SDS011;27703;51.980;5.848;2023-07-08T04:00:45;0.73;;;0.35;;
42018;SDS011;27703;51.980;5.848;2023-07-08T04:03:11;0.70;;;0.30;;
42018;SDS011;27703;51.980;5.848;2023-07-08T04:05:36;0.68;;;0.30;;
42018;SDS011;27703;51.980;5.848;2023-07-08T04:08:02;0.60;;;0.22;;
42018;SDS011;27703;51.980;5.848;2023-07-08T04:10:28;0.40;;;0.20;;
42018;SDS011;27703;51.980;5.848;2023-07-08T04:12:53;1.30;;;0.30;;
42018;SDS011;27703;51.980;5.848;2023-07-08T04:15:19;0.80;;;0.30;;
42018;SDS011;27703;51.980;5.848;2023-07-08T04:17:50;1.02;;;0.30;;
42018;SDS011;27703;51.980;5.848;2023-07-08T04:20:17;0.80;;;0.30;;
42018;SDS011;27703;51.980;5.848;2023-07-08T04:22:44;0.85;;;0.30;;
42018;SDS011;27703;51.980;5.848;2023-07-08T04:25:10;1.27;;;0.20;;
42018;SDS011;27703;51.980;5.848;2023-07-08T04:27:37;0.55;;;0.20;;
42018;SDS011;27703;51.980;5.848;2023-07-08T04:30:03;0.88;;;0.30;;
42018;SDS011;27703;51.980;5.848;2023-07-08T04:32:30;2.30;;;0.40;;
42018;SDS011;27703;51.980;5.848;2023-07-08T04:34:55;0.95;;;0.20;;
42018;SDS011;27703;51.980;5.848;2023-07-08T04:37:21;0.93;;;0.30;;
42018;SDS011;27703;51.980;5.848;2023-07-08T04:39:47;1.25;;;0.20;;
42018;SDS011;27703;51.980;5.848;2023-07-08T04:42:13;1.90;;;0.30;;
42018;SDS011;27703;51.980;5.848;2023-07-08T04:44:40;0.50;;;0.20;;
42018;SDS011;27703;51.980;5.848;2023-07-08T04:47:06;0.73;;;0.20;;
42018;SDS011;27703;51.980;5.848;2023-07-08T04:49:34;0.80;;;0.30;;
42018;SDS011;27703;51.980;5.848;2023-07-08T04:52:00;0.88;;;0.35;;
42018;SDS011;27703;51.980;5.848;2023-07-08T04:54:27;0.93;;;0.28;;
42018;SDS011;27703;51.980;5.848;2023-07-08T04:56:53;1.10;;;0.30;;
42018;SDS011;27703;51.980;5.848;2023-07-08T04:59:20;1.17;;;0.32;;
42018;SDS011;27703;51.980;5.848;2023-07-08T05:01:47;1.77;;;0.30;;
42018;SDS011;27703;51.980;5.848;2023-07-08T05:04:14;1.10;;;0.30;;
42018;SDS011;27703;51.980;5.848;2023-07-08T05:06:41;0.93;;;0.30;;
42018;SDS011;27703;51.980;5.848;2023-07-08T05:09:07;0.80;;;0.30;;
42018;SDS011;27703;51.980;5.848;2023-07-08T05:11:33;1.75;;;0.30;;
42018;SDS011;27703;51.980;5.848;2023-07-08T05:13:59;1.17;;;0.30;;
42018;SDS011;27703;51.980;5.848;2023-07-08T05:16:25;1.35;;;0.30;;
42018;SDS011;27703;51.980;5.848;2023-07-08T05:18:51;1.13;;;0.30;;
42018;SDS011;27703;51.980;5.848;2023-07-08T05:21:17;0.63;;;0.30;;
42018;SDS011;27703;51.980;5.848;2023-07-08T05:23:44;1.00;;;0.30;;
42018;SDS011;27703;51.980;5.848;2023-07-08T05:26:10;1.08;;;0.32;;
42018;SDS011;27703;51.980;5.848;2023-07-08T05:28:36;3.05;;;0.43;;
42018;SDS011;27703;51.980;5.848;2023-07-08T05:31:02;0.75;;;0.30;;
42018;SDS011;27703;51.980;5.848;2023-07-08T05:33:28;1.00;;;0.30;;
42018;SDS011;27703;51.980;5.848;2023-07-08T05:35:55;0.85;;;0.30;;
42018;SDS011;27703;51.980;5.848;2023-07-08T05:38:21;0.50;;;0.30;;
42018;SDS011;27703;51.980;5.848;2023-07-08T05:40:54;1.33;;;0.30;;
42018;SDS011;27703;51.980;5.848;2023-07-08T05:43:20;1.25;;;0.20;;
42018;SDS011;27703;51.980;5.848;2023-07-08T05:45:46;0.80;;;0.30;;
42018;SDS011;27703;51.980;5.848;2023-07-08T05:48:12;1.40;;;0.30;;
42018;SDS011;27703;51.980;5.848;2023-07-08T05:50:38;0.70;;;0.30;;
42018;SDS011;27703;51.980;5.848;2023-07-08T05:53:04;0.73;;;0.28;;
42018;SDS011;27703;51.980;5.848;2023-07-08T05:55:31;0.68;;;0.28;;
42018;SDS011;27703;51.980;5.848;2023-07-08T05:57:57;1.08;;;0.38;;
42018;SDS011;27703;51.980;5.848;2023-07-08T06:00:23;0.63;;;0.30;;
42018;SDS011;27703;51.980;5.848;2023-07-08T06:02:48;1.27;;;0.30;;
42018;SDS011;27703;51.980;5.848;2023-07-08T06:05:14;0.95;;;0.20;;
42018;SDS011;27703;51.980;5.848;2023-07-08T06:07:40;1.08;;;0.40;;
42018;SDS011;27703;51.980;5.848;2023-07-08T06:10:05;0.77;;;0.40;;
42018;SDS011;27703;51.980;5.848;2023-07-08T06:12:31;1.73;;;0.30;;
42018;SDS011;27703;51.980;5.848;2023-07-08T06:14:57;1.00;;;0.30;;
42018;SDS011;27703;51.980;5.848;2023-07-08T06:17:23;0.70;;;0.30;;
42018;SDS011;27703;51.980;5.848;2023-07-08T06:19:48;0.73;;;0.25;;
42018;SDS011;27703;51.980;5.848;2023-07-08T06:22:14;0.98;;;0.30;;
42018;SDS011;27703;51.980;5.848;2023-07-08T06:24:40;0.70;;;0.30;;
42018;SDS011;27703;51.980;5.848;2023-07-08T06:27:06;0.80;;;0.30;;
42018;SDS011;27703;51.980;5.848;2023-07-08T06:29:32;1.25;;;0.40;;
42018;SDS011;27703;51.980;5.848;2023-07-08T06:31:58;0.35;;;0.20;;
42018;SDS011;27703;51.980;5.848;2023-07-08T06:34:24;0.90;;;0.30;;
42018;SDS011;27703;51.980;5.848;2023-07-08T06:36:50;0.68;;;0.30;;
42018;SDS011;27703;51.980;5.848;2023-07-08T06:39:16;0.70;;;0.30;;
42018;SDS011;27703;51.980;5.848;2023-07-08T06:41:42;1.13;;;0.40;;
42018;SDS011;27703;51.980;5.848;2023-07-08T06:44:08;1.20;;;0.28;;
42018;SDS011;27703;51.980;5.848;2023-07-08T06:46:33;1.10;;;0.30;;
42018;SDS011;27703;51.980;5.848;2023-07-08T06:48:59;0.68;;;0.30;;
42018;SDS011;27703;51.980;5.848;2023-07-08T06:51:25;0.77;;;0.30;;
42018;SDS011;27703;51.980;5.848;2023-07-08T06:53:51;0.80;;;0.30;;
42018;SDS011;27703;51.980;5.848;2023-07-08T06:56:17;1.10;;;0.35;;
42018;SDS011;27703;51.980;5.848;2023-07-08T06:58:42;0.98;;;0.30;;
42018;SDS011;27703;51.980;5.848;2023-07-08T07:01:08;1.13;;;0.30;;
42018;SDS011;27703;51.980;5.848;2023-07-08T07:03:34;1.00;;;0.40;;
42018;SDS011;27703;51.980;5.848;2023-07-08T07:05:59;0.75;;;0.30;;
42018;SDS011;27703;51.980;5.848;2023-07-08T07:08:25;1.40;;;0.40;;
42018;SDS011;27703;51.980;5.848;2023-07-08T07:10:50;1.08;;;0.40;;
42018;SDS011;27703;51.980;5.848;2023-07-08T07:13:16;1.20;;;0.40;;
42018;SDS011;27703;51.980;5.848;2023-07-08T07:15:42;1.55;;;0.40;;
42018;SDS011;27703;51.980;5.848;2023-07-08T07:18:07;0.95;;;0.40;;
42018;SDS011;27703;51.980;5.848;2023-07-08T07:20:33;1.30;;;0.30;;
42018;SDS011;27703;51.980;5.848;2023-07-08T07:23:01;1.60;;;0.40;;
42018;SDS011;27703;51.980;5.848;2023-07-08T07:25:27;1.00;;;0.40;;
42018;SDS011;27703;51.980;5.848;2023-07-08T07:27:52;0.73;;;0.40;;
42018;SDS011;27703;51.980;5.848;2023-07-08T07:30:18;0.98;;;0.30;;
42018;SDS011;27703;51.980;5.848;2023-07-08T07:32:44;1.35;;;0.40;;
42018;SDS011;27703;51.980;5.848;2023-07-08T07:35:10;0.90;;;0.40;;
42018;SDS011;27703;51.980;5.848;2023-07-08T07:37:40;7.97;;;0.40;;
42018;SDS011;27703;51.980;5.848;2023-07-08T07:40:09;3.60;;;0.45;;
42018;SDS011;27703;51.980;5.848;2023-07-08T07:42:38;1.73;;;0.93;;
42018;SDS011;27703;51.980;5.848;2023-07-08T07:45:05;0.73;;;0.32;;
42018;SDS011;27703;51.980;5.848;2023-07-08T07:47:31;1.27;;;0.50;;
42018;SDS011;27703;51.980;5.848;2023-07-08T07:49:57;1.40;;;0.47;;
42018;SDS011;27703;51.980;5.848;2023-07-08T07:52:23;1.42;;;0.40;;
42018;SDS011;27703;51.980;5.848;2023-07-08T07:54:49;4.47;;;0.32;;
42018;SDS011;27703;51.980;5.848;2023-07-08T07:57:16;3.50;;;0.40;;
42018;SDS011;27703;51.980;5.848;2023-07-08T07:59:42;1.90;;;0.40;;
42018;SDS011;27703;51.980;5.848;2023-07-08T08:02:07;1.35;;;0.40;;
42018;SDS011;27703;51.980;5.848;2023-07-08T08:04:33;1.10;;;0.45;;
42018;SDS011;27703;51.980;5.848;2023-07-08T08:06:59;1.02;;;0.50;;
42018;SDS011;27703;51.980;5.848;2023-07-08T08:09:25;4.82;;;0.40;;
42018;SDS011;27703;51.980;5.848;2023-07-08T08:11:50;3.03;;;0.60;;
42018;SDS011;27703;51.980;5.848;2023-07-08T08:14:17;3.05;;;0.70;;
42018;SDS011;27703;51.980;5.848;2023-07-08T08:16:43;2.78;;;0.52;;
42018;SDS011;27703;51.980;5.848;2023-07-08T08:19:09;1.90;;;0.50;;
42018;SDS011;27703;51.980;5.848;2023-07-08T08:21:34;1.30;;;0.57;;
42018;SDS011;27703;51.980;5.848;2023-07-08T08:24:00;3.70;;;0.52;;
42018;SDS011;27703;51.980;5.848;2023-07-08T08:26:26;1.23;;;0.52;;
42018;SDS011;27703;51.980;5.848;2023-07-08T08:28:52;1.73;;;0.50;;
42018;SDS011;27703;51.980;5.848;2023-07-08T08:31:18;1.08;;;0.52;;
42018;SDS011;27703;51.980;5.848;2023-07-08T08:33:43;1.20;;;0.40;;
42018;SDS011;27703;51.980;5.848;2023-07-08T08:36:09;1.00;;;0.40;;
42018;SDS011;27703;51.980;5.848;2023-07-08T08:38:34;1.08;;;0.40;;
42018;SDS011;27703;51.980;5.848;2023-07-08T08:41:12;1.58;;;0.40;;
42018;SDS011;27703;51.980;5.848;2023-07-08T08:43:40;1.30;;;0.63;;
42018;SDS011;27703;51.980;5.848;2023-07-08T08:46:18;1.40;;;0.82;;
42018;SDS011;27703;51.980;5.848;2023-07-08T08:49:07;1.58;;;0.50;;
42018;SDS011;27703;51.980;5.848;2023-07-08T08:51:42;1.75;;;0.50;;
42018;SDS011;27703;51.980;5.848;2023-07-08T08:54:08;1.20;;;0.60;;
42018;SDS011;27703;51.980;5.848;2023-07-08T08:56:39;1.77;;;1.05;;
42018;SDS011;27703;51.980;5.848;2023-07-08T08:59:37;1.50;;;0.63;;
42018;SDS011;27703;51.980;5.848;2023-07-08T09:02:31;2.60;;;0.93;;
42018;SDS011;27703;51.980;5.848;2023-07-08T09:05:04;1.45;;;0.50;;
42018;SDS011;27703;51.980;5.848;2023-07-08T09:07:41;1.10;;;0.50;;
42018;SDS011;27703;51.980;5.848;2023-07-08T09:10:43;1.80;;;0.80;;
42018;SDS011;27703;51.980;5.848;2023-07-08T09:13:35;1.30;;;0.55;;
42018;SDS011;27703;51.980;5.848;2023-07-08T09:16:06;1.63;;;0.88;;
42018;SDS011;27703;51.980;5.848;2023-07-08T09:19:00;1.40;;;0.70;;
42018;SDS011;27703;51.980;5.848;2023-07-08T09:21:42;1.52;;;0.60;;
42018;SDS011;27703;51.980;5.848;2023-07-08T09:27:13;1.50;;;0.60;;
42018;SDS011;27703;51.980;5.848;2023-07-08T09:29:38;1.73;;;0.63;;
42018;SDS011;27703;51.980;5.848;2023-07-08T09:32:14;1.70;;;0.55;;
42018;SDS011;27703;51.980;5.848;2023-07-08T09:34:55;1.30;;;0.50;;
42018;SDS011;27703;51.980;5.848;2023-07-08T09:37:29;2.83;;;0.63;;
42018;SDS011;27703;51.980;5.848;2023-07-08T09:39:56;3.58;;;0.80;;
42018;SDS011;27703;51.980;5.848;2023-07-08T09:42:31;1.50;;;0.60;;
42018;SDS011;27703;51.980;5.848;2023-07-08T09:44:59;1.15;;;0.60;;
42018;SDS011;27703;51.980;5.848;2023-07-08T09:47:32;1.52;;;0.70;;
42018;SDS011;27703;51.980;5.848;2023-07-08T09:49:59;1.42;;;0.60;;
42018;SDS011;27703;51.980;5.848;2023-07-08T09:52:26;1.60;;;0.82;;
42018;SDS011;27703;51.980;5.848;2023-07-08T09:54:55;2.42;;;0.88;;
42018;SDS011;27703;51.980;5.848;2023-07-08T09:57:30;1.20;;;0.60;;
42018;SDS011;27703;51.980;5.848;2023-07-08T10:03:09;1.45;;;0.70;;
42018;SDS011;27703;51.980;5.848;2023-07-08T10:05:43;1.27;;;0.60;;
42018;SDS011;27703;51.980;5.848;2023-07-08T10:08:17;2.67;;;0.93;;
42018;SDS011;27703;51.980;5.848;2023-07-08T10:10:45;1.58;;;0.90;;
42018;SDS011;27703;51.980;5.848;2023-07-08T10:15:46;2.20;;;0.70;;
42018;SDS011;27703;51.980;5.848;2023-07-08T10:18:24;3.53;;;0.85;;
42018;SDS011;27703;51.980;5.848;2023-07-08T10:26:49;1.33;;;0.60;;
42018;SDS011;27703;51.980;5.848;2023-07-08T10:35:27;1.80;;;0.90;;
42018;SDS011;27703;51.980;5.848;2023-07-08T10:38:05;3.08;;;1.73;;
42018;SDS011;27703;51.980;5.848;2023-07-08T10:40:46;2.75;;;1.48;;
42018;SDS011;27703;51.980;5.848;2023-07-08T10:51:37;2.63;;;1.40;;
42018;SDS011;27703;51.980;5.848;2023-07-08T10:56:48;4.07;;;1.45;;
42018;SDS011;27703;51.980;5.848;2023-07-08T10:59:22;1.85;;;1.27;;
42018;SDS011;27703;51.980;5.848;2023-07-08T11:02:07;2.63;;;1.13;;
42018;SDS011;27703;51.980;5.848;2023-07-08T11:04:47;2.92;;;1.13;;
42018;SDS011;27703;51.980;5.848;2023-07-08T11:07:40;2.72;;;1.15;;
42018;SDS011;27703;51.980;5.848;2023-07-08T11:12:53;2.20;;;1.05;;
42018;SDS011;27703;51.980;5.848;2023-07-08T11:15:36;4.30;;;0.90;;
42018;SDS011;27703;51.980;5.848;2023-07-08T11:18:12;4.45;;;1.23;;
42018;SDS011;27703;51.980;5.848;2023-07-08T11:20:52;2.88;;;1.05;;
42018;SDS011;27703;51.980;5.848;2023-07-08T11:23:31;2.40;;;1.10;;
42018;SDS011;27703;51.980;5.848;2023-07-08T11:26:05;2.17;;;1.17;;
42018;SDS011;27703;51.980;5.848;2023-07-08T11:28:40;2.38;;;1.48;;
42018;SDS011;27703;51.980;5.848;2023-07-08T11:31:06;2.30;;;1.13;;
42018;SDS011;27703;51.980;5.848;2023-07-08T11:33:32;1.88;;;1.17;;
42018;SDS011;27703;51.980;5.848;2023-07-08T11:36:00;1.88;;;1.00;;
42018;SDS011;27703;51.980;5.848;2023-07-08T11:38:28;3.13;;;1.48;;
42018;SDS011;27703;51.980;5.848;2023-07-08T11:43:27;3.30;;;1.10;;
42018;SDS011;27703;51.980;5.848;2023-07-08T11:46:03;1.98;;;0.85;;
42018;SDS011;27703;51.980;5.848;2023-07-08T11:48:35;2.97;;;0.97;;
42018;SDS011;27703;51.980;5.848;2023-07-08T11:51:05;1.50;;;0.93;;
42018;SDS011;27703;51.980;5.848;2023-07-08T11:53:33;3.83;;;1.02;;
42018;SDS011;27703;51.980;5.848;2023-07-08T11:56:03;1.63;;;1.00;;
42018;SDS011;27703;51.980;5.848;2023-07-08T11:59:08;1.98;;;1.23;;
42018;SDS011;27703;51.980;5.848;2023-07-08T12:01:40;1.63;;;0.70;;
42018;SDS011;27703;51.980;5.848;2023-07-08T12:04:16;3.20;;;1.17;;
42018;SDS011;27703;51.980;5.848;2023-07-08T12:06:53;2.00;;;1.13;;
42018;SDS011;27703;51.980;5.848;2023-07-08T12:09:46;2.63;;;1.13;;
42018;SDS011;27703;51.980;5.848;2023-07-08T12:12:24;2.28;;;1.15;;
42018;SDS011;27703;51.980;5.848;2023-07-08T12:15:00;1.67;;;1.00;;
42018;SDS011;27703;51.980;5.848;2023-07-08T12:17:37;2.03;;;1.15;;
42018;SDS011;27703;51.980;5.848;2023-07-08T12:20:04;3.17;;;0.93;;
42018;SDS011;27703;51.980;5.848;2023-07-08T12:22:39;2.85;;;1.25;;
42018;SDS011;27703;51.980;5.848;2023-07-08T12:25:07;3.92;;;1.42;;
42018;SDS011;27703;51.980;5.848;2023-07-08T12:27:45;2.13;;;1.38;;
42018;SDS011;27703;51.980;5.848;2023-07-08T12:30:11;2.13;;;0.88;;
42018;SDS011;27703;51.980;5.848;2023-07-08T12:32:38;4.07;;;1.38;;
42018;SDS011;27703;51.980;5.848;2023-07-08T12:35:05;1.95;;;1.05;;
42018;SDS011;27703;51.980;5.848;2023-07-08T12:37:53;2.78;;;1.10;;
42018;SDS011;27703;51.980;5.848;2023-07-08T12:40:25;3.13;;;1.17;;
42018;SDS011;27703;51.980;5.848;2023-07-08T12:42:52;2.05;;;1.35;;
42018;SDS011;27703;51.980;5.848;2023-07-08T12:45:20;2.45;;;0.85;;
42018;SDS011;27703;51.980;5.848;2023-07-08T12:47:47;2.33;;;1.02;;
42018;SDS011;27703;51.980;5.848;2023-07-08T12:50:13;2.40;;;1.30;;
42018;SDS011;27703;51.980;5.848;2023-07-08T12:52:40;1.88;;;0.95;;
42018;SDS011;27703;51.980;5.848;2023-07-08T12:55:09;1.88;;;1.25;;
42018;SDS011;27703;51.980;5.848;2023-07-08T12:57:35;4.00;;;1.25;;
42018;SDS011;27703;51.980;5.848;2023-07-08T13:00:02;2.13;;;1.65;;
42018;SDS011;27703;51.980;5.848;2023-07-08T13:02:29;2.88;;;1.42;;
42018;SDS011;27703;51.980;5.848;2023-07-08T13:04:58;2.40;;;1.25;;
42018;SDS011;27703;51.980;5.848;2023-07-08T13:07:34;3.25;;;1.00;;
42018;SDS011;27703;51.980;5.848;2023-07-08T13:10:00;3.95;;;1.40;;
42018;SDS011;27703;51.980;5.848;2023-07-08T13:12:27;2.40;;;1.08;;
42018;SDS011;27703;51.980;5.848;2023-07-08T13:14:53;2.63;;;1.42;;
42018;SDS011;27703;51.980;5.848;2023-07-08T13:17:22;2.88;;;1.55;;
42018;SDS011;27703;51.980;5.848;2023-07-08T13:19:48;2.42;;;1.23;;
42018;SDS011;27703;51.980;5.848;2023-07-08T13:22:15;4.72;;;1.55;;
42018;SDS011;27703;51.980;5.848;2023-07-08T13:24:43;3.15;;;1.42;;
42018;SDS011;27703;51.980;5.848;2023-07-08T13:27:13;2.58;;;1.30;;
42018;SDS011;27703;51.980;5.848;2023-07-08T13:29:47;2.47;;;1.45;;
42018;SDS011;27703;51.980;5.848;2023-07-08T13:32:13;1.88;;;1.27;;
42018;SDS011;27703;51.980;5.848;2023-07-08T13:34:40;4.75;;;1.60;;
42018;SDS011;27703;51.980;5.848;2023-07-08T13:37:09;2.33;;;1.25;;
42018;SDS011;27703;51.980;5.848;2023-07-08T13:39:38;4.20;;;1.42;;
42018;SDS011;27703;51.980;5.848;2023-07-08T13:42:05;1.73;;;0.85;;
42018;SDS011;27703;51.980;5.848;2023-07-08T13:44:32;2.42;;;1.30;;
42018;SDS011;27703;51.980;5.848;2023-07-08T13:46:59;2.05;;;1.30;;
42018;SDS011;27703;51.980;5.848;2023-07-08T13:49:30;2.35;;;1.13;;
42018;SDS011;27703;51.980;5.848;2023-07-08T13:52:08;2.58;;;1.33;;
42018;SDS011;27703;51.980;5.848;2023-07-08T13:54:45;2.33;;;1.45;;
42018;SDS011;27703;51.980;5.848;2023-07-08T13:57:18;2.95;;;1.13;;
42018;SDS011;27703;51.980;5.848;2023-07-08T13:59:45;2.50;;;1.30;;
42018;SDS011;27703;51.980;5.848;2023-07-08T14:04:50;2.75;;;1.63;;
42018;SDS011;27703;51.980;5.848;2023-07-08T14:07:22;2.53;;;1.55;;
42018;SDS011;27703;51.980;5.848;2023-07-08T14:09:52;2.78;;;1.67;;
42018;SDS011;27703;51.980;5.848;2023-07-08T14:12:19;2.72;;;1.10;;
42018;SDS011;27703;51.980;5.848;2023-07-08T14:14:45;3.60;;;1.35;;
42018;SDS011;27703;51.980;5.848;2023-07-08T14:17:11;3.35;;;1.55;;
42018;SDS011;27703;51.980;5.848;2023-07-08T14:19:39;3.00;;;1.27;;
42018;SDS011;27703;51.980;5.848;2023-07-08T14:22:47;2.45;;;1.27;;
42018;SDS011;27703;51.980;5.848;2023-07-08T14:24:55;2.95;;;1.20;;
42018;SDS011;27703;51.980;5.848;2023-07-08T14:27:25;2.40;;;1.70;;
42018;SDS011;27703;51.980;5.848;2023-07-08T14:29:51;2.30;;;1.20;;
42018;SDS011;27703;51.980;5.848;2023-07-08T14:32:20;4.50;;;1.15;;
42018;SDS011;27703;51.980;5.848;2023-07-08T14:34:53;1.95;;;1.17;;
42018;SDS011;27703;51.980;5.848;2023-07-08T14:37:21;1.98;;;1.20;;
42018;SDS011;27703;51.980;5.848;2023-07-08T14:39:48;3.28;;;1.10;;
42018;SDS011;27703;51.980;5.848;2023-07-08T14:42:14;1.90;;;1.27;;
42018;SDS011;27703;51.980;5.848;2023-07-08T14:44:42;2.47;;;1.15;;
42018;SDS011;27703;51.980;5.848;2023-07-08T14:47:10;2.72;;;1.02;;
42018;SDS011;27703;51.980;5.848;2023-07-08T14:49:37;2.03;;;0.75;;
42018;SDS011;27703;51.980;5.848;2023-07-08T14:52:03;3.05;;;1.40;;
42018;SDS011;27703;51.980;5.848;2023-07-08T14:54:29;2.20;;;1.00;;
42018;SDS011;27703;51.980;5.848;2023-07-08T14:56:55;1.90;;;1.00;;
42018;SDS011;27703;51.980;5.848;2023-07-08T14:59:23;2.47;;;1.10;;
42018;SDS011;27703;51.980;5.848;2023-07-08T15:01:51;6.05;;;0.95;;
42018;SDS011;27703;51.980;5.848;2023-07-08T15:04:18;1.73;;;0.80;;
42018;SDS011;27703;51.980;5.848;2023-07-08T15:06:44;1.90;;;0.88;;
42018;SDS011;27703;51.980;5.848;2023-07-08T15:09:11;1.70;;;1.00;;
42018;SDS011;27703;51.980;5.848;2023-07-08T15:11:38;1.80;;;1.15;;
42018;SDS011;27703;51.980;5.848;2023-07-08T15:14:09;2.95;;;0.98;;
42018;SDS011;27703;51.980;5.848;2023-07-08T15:16:39;1.85;;;0.93;;
42018;SDS011;27703;51.980;5.848;2023-07-08T15:19:09;2.38;;;1.00;;
42018;SDS011;27703;51.980;5.848;2023-07-08T15:21:36;2.20;;;0.80;;
42018;SDS011;27703;51.980;5.848;2023-07-08T15:24:02;1.50;;;0.80;;
42018;SDS011;27703;51.980;5.848;2023-07-08T15:26:28;2.80;;;1.05;;
42018;SDS011;27703;51.980;5.848;2023-07-08T15:28:53;1.75;;;0.90;;
42018;SDS011;27703;51.980;5.848;2023-07-08T15:31:20;1.75;;;0.88;;
42018;SDS011;27703;51.980;5.848;2023-07-08T15:33:49;2.10;;;1.03;;
42018;SDS011;27703;51.980;5.848;2023-07-08T15:36:15;4.80;;;0.90;;
42018;SDS011;27703;51.980;5.848;2023-07-08T15:38:41;2.70;;;1.30;;
42018;SDS011;27703;51.980;5.848;2023-07-08T15:43:49;3.05;;;0.93;;